| time (UTC) | temp C | wind direction | speed KPH | gust KPH | rain 1hr cm | rain 24hr cm | rain mn cm | humidity % | barometer mb |
| 20260509201258 | 30 | 172 | 3.2 | 3.2 | 0.00 | 0.00 | 0.00 | 39 | 1011.2 |
| 20260509200754 | 31 | 168 | 6.4 | 6.4 | 0.00 | 0.00 | 0.00 | 39 | 1011.3 |
| 20260509200249 | 30 | 132 | 1.6 | 1.6 | 0.00 | 0.00 | 0.00 | 42 | 1011.3 |
| 20260509195746 | 30 | 125 | 0.0 | 0.0 | 0.00 | 0.00 | 0.00 | 42 | 1011.2 |
| 20260509195241 | 30 | 177 | 0.0 | 0.0 | 0.00 | 0.00 | 0.00 | 41 | 1011.5 |
| 20260509194736 | 30 | 315 | 1.6 | 3.2 | 0.00 | 0.00 | 0.00 | 41 | 1011.7 |
| 20260509194232 | 30 | 351 | 4.8 | 4.8 | 0.00 | 0.00 | 0.00 | 43 | 1011.6 |
| 20260509193730 | 30 | 327 | 1.6 | 3.2 | 0.00 | 0.00 | 0.00 | 43 | 1011.7 |
| 20260509193229 | 30 | 51 | 3.2 | 3.2 | 0.00 | 0.00 | 0.00 | 44 | 1011.7 |
| 20260509192725 | 30 | 60 | 1.6 | 1.6 | 0.00 | 0.00 | 0.00 | 44 | 1011.9 |
| 20260509192220 | 29 | 161 | 0.0 | 0.0 | 0.00 | 0.00 | 0.00 | 44 | 1011.7 |
| 20260509191716 | 30 | 33 | 4.8 | 4.8 | 0.00 | 0.00 | 0.00 | 46 | 1011.8 |
| 20260509191213 | 30 | 61 | 3.2 | 3.2 | 0.00 | 0.00 | 0.00 | 51 | 1011.9 |
| 20260509190709 | 30 | 5 | 1.6 | 1.6 | 0.00 | 0.00 | 0.00 | 45 | 1011.8 |
| 20260509190206 | 30 | 324 | 1.6 | 3.2 | 0.00 | 0.00 | 0.00 | 45 | 1012.1 |
| 20260509185704 | 29 | 278 | 1.6 | 1.6 | 0.00 | 0.00 | 0.00 | 41 | 1012.0 |
| 20260509185159 | 29 | 52 | 3.2 | 3.2 | 0.00 | 0.00 | 0.00 | 45 | 1012.1 |
| 20260509184657 | 29 | 322 | 1.6 | 3.2 | 0.00 | 0.00 | 0.00 | 39 | 1012.2 |
| 20260509184154 | 29 | 347 | 3.2 | 3.2 | 0.00 | 0.00 | 0.00 | 44 | 1012.2 |
| 20260509183651 | 28 | 189 | 0.0 | 1.6 | 0.00 | 0.00 | 0.00 | 52 | 1012.1 |
| 20260509183146 | 28 | 236 | 0.0 | 0.0 | 0.00 | 0.00 | 0.00 | 53 | 1012.2 |
| 20260509182642 | 28 | 122 | 1.6 | 3.2 | 0.00 | 0.00 | 0.00 | 56 | 1012.4 |
| 20260509182139 | 28 | 128 | 6.4 | 6.4 | 0.00 | 0.00 | 0.00 | 55 | 1012.6 |
| 20260509181637 | 28 | 214 | 3.2 | 4.8 | 0.00 | 0.00 | 0.00 | 60 | 1012.5 |
| 20260509181135 | 28 | 183 | 1.6 | 1.6 | 0.00 | 0.00 | 0.00 | 57 | 1012.7 |
| 20260509180631 | 28 | 169 | 0.0 | 1.6 | 0.00 | 0.00 | 0.00 | 57 | 1012.7 |
| 20260509180127 | 28 | 183 | 4.8 | 6.4 | 0.00 | 0.00 | 0.00 | 55 | 1012.7 |
| 20260509175623 | 28 | 115 | 1.6 | 3.2 | 0.00 | 0.00 | 0.00 | 60 | 1012.7 |
| 20260509175120 | 27 | 217 | 0.0 | 0.0 | 0.00 | 0.00 | 0.00 | 65 | 1012.8 |
| 20260509174616 | 27 | 168 | 0.0 | 0.0 | 0.00 | 0.00 | 0.00 | 63 | 1013.0 |
| 20260509174111 | 27 | 65 | 3.2 | 3.2 | 0.00 | 0.00 | 0.00 | 63 | 1013.3 |
| 20260509173607 | 27 | 8 | 3.2 | 4.8 | 0.00 | 0.00 | 0.00 | 65 | 1013.2 |
| 20260509173103 | 27 | 118 | 0.0 | 0.0 | 0.00 | 0.00 | 0.00 | 66 | 1013.1 |
| 20260509172600 | 27 | 297 | 1.6 | 1.6 | 0.00 | 0.00 | 0.00 | 65 | 1013.2 |
| 20260509172056 | 27 | 329 | 3.2 | 3.2 | 0.00 | 0.00 | 0.00 | 64 | 1013.4 |
| 20260509171552 | 26 | 131 | 0.0 | 1.6 | 0.00 | 0.00 | 0.00 | 66 | 1013.5 |
| 20260509171048 | 27 | 164 | 6.4 | 6.4 | 0.00 | 0.00 | 0.00 | 63 | 1013.5 |
| 20260509170544 | 26 | 49 | 3.2 | 4.8 | 0.00 | 0.00 | 0.00 | 66 | 1013.5 |
| 20260509170041 | 26 | 49 | 1.6 | 3.2 | 0.00 | 0.00 | 0.00 | 67 | 1013.6 |
| 20260509165539 | 26 | 242 | 1.6 | 3.2 | 0.00 | 0.00 | 0.00 | 69 | 1013.6 |
| 20260509165035 | 26 | 328 | 3.2 | 3.2 | 0.00 | 0.00 | 0.00 | 67 | 1013.6 |
| 20260509164531 | 26 | 91 | 3.2 | 3.2 | 0.00 | 0.00 | 0.00 | 67 | 1013.7 |
| 20260509164027 | 26 | 169 | 3.2 | 3.2 | 0.00 | 0.00 | 0.00 | 68 | 1013.5 |
| 20260509163525 | 26 | 233 | 1.6 | 3.2 | 0.00 | 0.00 | 0.00 | 66 | 1013.7 |
| 20260509163020 | 26 | 172 | 0.0 | 1.6 | 0.00 | 0.00 | 0.00 | 69 | 1013.7 |
| 20260509162518 | 25 | 30 | 3.2 | 3.2 | 0.00 | 0.00 | 0.00 | 68 | 1013.8 |
| 20260509162013 | 25 | 332 | 3.2 | 3.2 | 0.00 | 0.00 | 0.00 | 68 | 1013.7 |
| 20260509161511 | 25 | 84 | 1.6 | 3.2 | 0.00 | 0.00 | 0.00 | 69 | 1013.8 |
| 20260509161010 | 25 | 97 | 3.2 | 3.2 | 0.00 | 0.00 | 0.00 | 72 | 1013.7 |
| 20260509160506 | 25 | 344 | 3.2 | 3.2 | 0.00 | 0.00 | 0.00 | 68 | 1013.8 |
| 20260509160001 | 25 | 141 | 0.0 | 0.0 | 0.00 | 0.00 | 0.00 | 69 | 1013.9 |
| 20260509155458 | 23 | 275 | 1.6 | 1.6 | 0.00 | 0.00 | 0.00 | 70 | 1013.9 |
| 20260509154955 | 24 | 314 | 3.2 | 3.2 | 0.00 | 0.00 | 0.00 | 71 | 1013.8 |
| 20260509154451 | 25 | 254 | 0.0 | 1.6 | 0.00 | 0.00 | 0.00 | 70 | 1013.6 |
| 20260509153949 | 25 | 197 | 0.0 | 1.6 | 0.00 | 0.00 | 0.00 | 70 | 1013.7 |
| 20260509153445 | 24 | 185 | 3.2 | 4.8 | 0.00 | 0.00 | 0.00 | 72 | 1013.8 |
| 20260509152942 | 23 | 178 | 1.6 | 1.6 | 0.00 | 0.00 | 0.00 | 73 | 1013.8 |
| 20260509152438 | 23 | 179 | 0.0 | 1.6 | 0.00 | 0.00 | 0.00 | 73 | 1013.8 |
| 20260509151935 | 23 | 233 | 1.6 | 1.6 | 0.00 | 0.00 | 0.00 | 75 | 1013.8 |
| 20260509151431 | 23 | 298 | 3.2 | 3.2 | 0.00 | 0.00 | 0.00 | 72 | 1013.7 |
| 20260509150930 | 23 | 133 | 1.6 | 3.2 | 0.00 | 0.00 | 0.00 | 73 | 1013.7 |
| 20260509150427 | 23 | 114 | 1.6 | 1.6 | 0.00 | 0.00 | 0.00 | 73 | 1013.8 |
| 20260509145925 | 23 | 179 | 1.6 | 1.6 | 0.00 | 0.00 | 0.00 | 74 | 1013.7 |
| 20260509145425 | 22 | 222 | 1.6 | 3.2 | 0.00 | 0.00 | 0.00 | 74 | 1013.7 |
| 20260509144921 | 23 | 166 | 0.0 | 0.0 | 0.00 | 0.00 | 0.00 | 75 | 1013.9 |
| 20260509144418 | 22 | 175 | 0.0 | 1.6 | 0.00 | 0.00 | 0.00 | 76 | 1013.6 |
| 20260509143915 | 22 | 271 | 1.6 | 1.6 | 0.00 | 0.00 | 0.00 | 76 | 1013.6 |
| 20260509143412 | 22 | 162 | 0.0 | 0.0 | 0.00 | 0.00 | 0.00 | 76 | 1013.4 |
| 20260509142908 | 22 | 158 | 0.0 | 1.6 | 0.00 | 0.00 | 0.00 | 78 | 1013.6 |
| 20260509142405 | 21 | 178 | 0.0 | 0.0 | 0.00 | 0.00 | 0.00 | 79 | 1013.5 |
| 20260509141901 | 21 | 162 | 0.0 | 1.6 | 0.00 | 0.00 | 0.00 | 79 | 1013.5 |
| 20260509141358 | 21 | 174 | 1.6 | 1.6 | 0.00 | 0.00 | 0.00 | 80 | 1013.7 |
| 20260509140854 | 20 | 298 | 3.2 | 3.2 | 0.00 | 0.00 | 0.00 | 81 | 1013.7 |
| 20260509140351 | 20 | 184 | 0.0 | 1.6 | 0.00 | 0.00 | 0.00 | 82 | 1013.6 |
| 20260509135849 | 20 | 177 | 1.6 | 1.6 | 0.00 | 0.00 | 0.00 | 82 | 1013.6 |
| 20260509135347 | 20 | 158 | 0.0 | 1.6 | 0.00 | 0.00 | 0.00 | 83 | 1013.9 |
| 20260509134844 | 19 | 169 | 0.0 | 0.0 | 0.00 | 0.00 | 0.00 | 83 | 1013.7 |
| 20260509134341 | 19 | 188 | 0.0 | 0.0 | 0.00 | 0.00 | 0.00 | 84 | 1013.8 |
| 20260509133837 | 18 | 180 | 0.0 | 0.0 | 0.00 | 0.00 | 0.00 | 85 | 1013.6 |
| 20260509133334 | 18 | 172 | 0.0 | 0.0 | 0.00 | 0.00 | 0.00 | 86 | 1013.6 |
| 20260509132833 | 18 | 190 | 0.0 | 0.0 | 0.00 | 0.00 | 0.00 | 87 | 1013.7 |
| 20260509132331 | 18 | 213 | 0.0 | 1.6 | 0.00 | 0.00 | 0.00 | 87 | 1013.7 |
| 20260509131828 | 18 | 197 | 0.0 | 0.0 | 0.00 | 0.00 | 0.00 | 90 | 1013.8 |
| 20260509131324 | 18 | 206 | 0.0 | 0.0 | 0.00 | 0.00 | 0.00 | 91 | 1013.7 |
| 20260509130821 | 17 | 166 | 0.0 | 0.0 | 0.00 | 0.00 | 0.00 | 92 | 1013.5 |
| 20260509130317 | 17 | 175 | 0.0 | 1.6 | 0.00 | 0.00 | 0.00 | 92 | 1013.5 |
| 20260509125813 | 17 | 173 | 0.0 | 0.0 | 0.00 | 0.00 | 0.00 | 93 | 1013.7 |
| 20260509125310 | 17 | 166 | 0.0 | 0.0 | 0.00 | 0.00 | 0.00 | 93 | 1013.6 |
| 20260509124806 | 16 | 174 | 0.0 | 0.0 | 0.00 | 0.00 | 0.00 | 93 | 1013.6 |
| 20260509124303 | 16 | 222 | 1.6 | 1.6 | 0.00 | 0.00 | 0.00 | 93 | 1013.6 |
| 20260509123801 | 16 | 176 | 0.0 | 0.0 | 0.00 | 0.00 | 0.00 | 94 | 1013.6 |
| 20260509123258 | 16 | 174 | 0.0 | 0.0 | 0.00 | 0.00 | 0.00 | 94 | 1013.7 |
| 20260509122754 | 15 | 191 | 0.0 | 1.6 | 0.00 | 0.00 | 0.00 | 94 | 1013.6 |
| 20260509122251 | 15 | 204 | 1.6 | 1.6 | 0.00 | 0.00 | 0.00 | 94 | 1013.6 |
| 20260509121748 | 15 | 185 | 0.0 | 0.0 | 0.00 | 0.00 | 0.00 | 94 | 1013.3 |
| 20260509121245 | 15 | 181 | 0.0 | 0.0 | 0.00 | 0.00 | 0.00 | 94 | 1013.2 |
| 20260509120743 | 15 | 171 | 1.6 | 1.6 | 0.00 | 0.00 | 0.00 | 94 | 1012.9 |
| 20260509120240 | 15 | 181 | 0.0 | 1.6 | 0.00 | 0.00 | 0.00 | 94 | 1013.1 |
| 20260509115738 | 15 | 180 | 0.0 | 0.0 | 0.00 | 0.00 | 0.00 | 94 | 1012.7 |
| 20260509115235 | 15 | 187 | 0.0 | 0.0 | 0.00 | 0.00 | 0.00 | 94 | 1012.6 |
| 20260509114734 | 15 | 186 | 0.0 | 0.0 | 0.00 | 0.00 | 0.00 | 93 | 1012.6 |
| 20260509114232 | 15 | 187 | 1.6 | 1.6 | 0.00 | 0.00 | 0.00 | 93 | 1012.5 |
| 20260509113730 | 15 | 193 | 0.0 | 0.0 | 0.00 | 0.00 | 0.00 | 93 | 1012.5 |
| 20260509113227 | 15 | 195 | 0.0 | 0.0 | 0.00 | 0.00 | 0.00 | 93 | 1012.5 |
| 20260509112724 | 15 | 196 | 0.0 | 0.0 | 0.00 | 0.00 | 0.00 | 93 | 1012.5 |
| 20260509112221 | 15 | 200 | 0.0 | 0.0 | 0.00 | 0.00 | 0.00 | 93 | 1012.1 |
| 20260509111718 | 15 | 170 | 0.0 | 0.0 | 0.00 | 0.00 | 0.00 | 93 | 1012.1 |
| 20260509111215 | 15 | 183 | 0.0 | 0.0 | 0.00 | 0.00 | 0.00 | 93 | 1012.0 |
| 20260509110712 | 15 | 193 | 0.0 | 0.0 | 0.00 | 0.00 | 0.00 | 93 | 1012.0 |
| 20260509110209 | 15 | 186 | 0.0 | 0.0 | 0.00 | 0.00 | 0.00 | 93 | 1012.0 |
| 20260509105707 | 15 | 195 | 0.0 | 0.0 | 0.00 | 0.00 | 0.00 | 93 | 1011.7 |
| 20260509105204 | 15 | 183 | 0.0 | 0.0 | 0.00 | 0.00 | 0.00 | 93 | 1011.7 |
| 20260509104701 | 15 | 180 | 0.0 | 0.0 | 0.00 | 0.00 | 0.00 | 93 | 1011.8 |
| 20260509104158 | 16 | 182 | 0.0 | 0.0 | 0.00 | 0.00 | 0.00 | 93 | 1011.7 |
| 20260509103656 | 16 | 170 | 0.0 | 0.0 | 0.00 | 0.00 | 0.00 | 93 | 1011.5 |
| 20260509103153 | 16 | 190 | 0.0 | 0.0 | 0.00 | 0.00 | 0.00 | 93 | 1011.6 |
| 20260509102651 | 16 | 174 | 0.0 | 0.0 | 0.00 | 0.00 | 0.00 | 93 | 1011.6 |
| 20260509102148 | 16 | 194 | 0.0 | 0.0 | 0.00 | 0.00 | 0.00 | 92 | 1011.4 |
| 20260509101644 | 16 | 175 | 3.2 | 3.2 | 0.00 | 0.00 | 0.00 | 92 | 1011.4 |
| 20260509101141 | 16 | 173 | 0.0 | 0.0 | 0.00 | 0.00 | 0.00 | 92 | 1011.6 |
| 20260509100638 | 16 | 208 | 0.0 | 0.0 | 0.00 | 0.00 | 0.00 | 92 | 1011.5 |
| 20260509100135 | 16 | 176 | 0.0 | 0.0 | 0.00 | 0.00 | 0.00 | 92 | 1011.5 |
| 20260509095632 | 16 | 176 | 0.0 | 0.0 | 0.00 | 0.00 | 0.00 | 92 | 1011.5 |
| 20260509095129 | 16 | 191 | 0.0 | 0.0 | 0.00 | 0.00 | 0.00 | 92 | 1011.8 |
| 20260509094625 | 16 | 225 | 0.0 | 0.0 | 0.00 | 0.00 | 0.00 | 92 | 1011.6 |
| 20260509094123 | 16 | 357 | 0.0 | 1.6 | 0.00 | 0.00 | 0.00 | 92 | 1011.6 |
| 20260509093621 | 16 | 227 | 0.0 | 0.0 | 0.00 | 0.00 | 0.00 | 92 | 1011.6 |
| 20260509093118 | 16 | 224 | 0.0 | 0.0 | 0.00 | 0.00 | 0.00 | 92 | 1011.7 |
| 20260509092615 | 16 | 220 | 0.0 | 0.0 | 0.00 | 0.00 | 0.00 | 92 | 1011.4 |
| 20260509092114 | 16 | 232 | 0.0 | 0.0 | 0.00 | 0.00 | 0.00 | 92 | 1011.4 |
| 20260509091612 | 16 | 192 | 0.0 | 0.0 | 0.00 | 0.00 | 0.00 | 92 | 1011.4 |
| 20260509091108 | 16 | 201 | 0.0 | 0.0 | 0.00 | 0.00 | 0.00 | 91 | 1011.3 |
| 20260509090605 | 16 | 48 | 0.0 | 0.0 | 0.00 | 0.00 | 0.00 | 91 | 1011.4 |
| 20260509090058 | 16 | 158 | 0.0 | 0.0 | 0.00 | 0.00 | 0.00 | 91 | 1011.5 |
| 20260509085554 | 16 | 217 | 0.0 | 0.0 | 0.00 | 0.00 | 0.00 | 91 | 1011.7 |
| 20260509085050 | 16 | 174 | 0.0 | 0.0 | 0.00 | 0.00 | 0.00 | 91 | 1011.9 |
| 20260509084547 | 17 | 194 | 0.0 | 0.0 | 0.00 | 0.00 | 0.00 | 91 | 1011.8 |
| 20260509084044 | 17 | 296 | 1.6 | 1.6 | 0.00 | 0.00 | 0.00 | 91 | 1011.8 |
| 20260509083542 | 17 | 328 | 3.2 | 3.2 | 0.00 | 0.00 | 0.00 | 91 | 1011.9 |
| 20260509083038 | 17 | 253 | 0.0 | 0.0 | 0.00 | 0.00 | 0.00 | 91 | 1011.9 |
| 20260509082536 | 17 | 213 | 0.0 | 0.0 | 0.00 | 0.00 | 0.00 | 91 | 1011.9 |
| 20260509082033 | 17 | 212 | 0.0 | 0.0 | 0.00 | 0.00 | 0.00 | 91 | 1011.8 |
| 20260509081530 | 17 | 213 | 0.0 | 0.0 | 0.00 | 0.00 | 0.00 | 90 | 1012.0 |
| 20260509081027 | 17 | 292 | 0.0 | 1.6 | 0.00 | 0.00 | 0.00 | 90 | 1011.7 |
| 20260509080525 | 17 | 140 | 0.0 | 0.0 | 0.00 | 0.00 | 0.00 | 90 | 1011.8 |
| 20260509080023 | 17 | 218 | 0.0 | 0.0 | 0.00 | 0.00 | 0.00 | 90 | 1011.7 |
| 20260509075520 | 17 | 200 | 0.0 | 0.0 | 0.00 | 0.00 | 0.00 | 90 | 1011.8 |
| 20260509075018 | 17 | 50 | 0.0 | 1.6 | 0.00 | 0.00 | 0.00 | 90 | 1011.7 |
| 20260509074515 | 17 | 331 | 3.2 | 4.8 | 0.00 | 0.00 | 0.00 | 90 | 1011.8 |
| 20260509074011 | 17 | 4 | 4.8 | 6.4 | 0.00 | 0.00 | 0.00 | 90 | 1011.5 |
| 20260509073508 | 17 | 351 | 4.8 | 6.4 | 0.00 | 0.00 | 0.00 | 90 | 1011.5 |
| 20260509073004 | 17 | 4 | 4.8 | 4.8 | 0.00 | 0.00 | 0.00 | 90 | 1011.5 |
| 20260509072501 | 17 | 355 | 3.2 | 4.8 | 0.00 | 0.00 | 0.00 | 90 | 1011.4 |
| 20260509071958 | 18 | 323 | 6.4 | 9.7 | 0.00 | 0.00 | 0.00 | 89 | 1011.4 |
| 20260509071454 | 18 | 254 | 4.8 | 6.4 | 0.00 | 0.00 | 0.00 | 89 | 1011.3 |
| 20260509070952 | 18 | 7 | 3.2 | 4.8 | 0.00 | 0.00 | 0.00 | 89 | 1011.3 |
| 20260509070448 | 18 | 346 | 4.8 | 6.4 | 0.00 | 0.00 | 0.00 | 89 | 1011.1 |
| 20260509065943 | 18 | 349 | 3.2 | 3.2 | 0.00 | 0.00 | 0.00 | 89 | 1010.7 |
| 20260509065440 | 18 | 320 | 1.6 | 1.6 | 0.00 | 0.00 | 0.00 | 89 | 1010.4 |
| 20260509064936 | 18 | 344 | 3.2 | 4.8 | 0.00 | 0.00 | 0.00 | 89 | 1010.6 |
| 20260509064434 | 18 | 340 | 6.4 | 6.4 | 0.00 | 0.00 | 0.00 | 88 | 1010.5 |
| 20260509063932 | 18 | 337 | 3.2 | 4.8 | 0.00 | 0.00 | 0.00 | 88 | 1010.5 |
| 20260509063427 | 18 | 205 | 3.2 | 4.8 | 0.00 | 0.00 | 0.00 | 88 | 1010.2 |
| 20260509062924 | 18 | 122 | 3.2 | 4.8 | 0.00 | 0.00 | 0.00 | 88 | 1010.2 |
| 20260509062422 | 18 | 322 | 3.2 | 3.2 | 0.00 | 0.00 | 0.00 | 88 | 1010.1 |
| 20260509061919 | 18 | 98 | 1.6 | 3.2 | 0.00 | 0.00 | 0.00 | 88 | 1010.1 |
| 20260509061417 | 18 | 8 | 9.7 | 12.9 | 0.00 | 0.00 | 0.00 | 88 | 1010.1 |
| 20260509060913 | 18 | 190 | 4.8 | 4.8 | 0.00 | 0.00 | 0.00 | 88 | 1010.4 |
| 20260509060411 | 18 | 357 | 3.2 | 4.8 | 0.00 | 0.00 | 0.00 | 88 | 1010.7 |
| 20260509055906 | 18 | 163 | 8.0 | 12.9 | 0.00 | 0.00 | 0.00 | 89 | 1010.7 |
| 20260509055401 | 17 | 156 | 4.8 | 4.8 | 0.00 | 0.00 | 0.00 | 89 | 1011.3 |
| 20260509054858 | 17 | 212 | 1.6 | 1.6 | 0.00 | 0.00 | 0.00 | 90 | 1012.1 |
| 20260509054355 | 17 | 57 | 0.0 | 0.0 | 0.00 | 0.00 | 0.00 | 89 | 1011.9 |
| 20260509053853 | 18 | 185 | 0.0 | 1.6 | 0.00 | 0.00 | 0.00 | 89 | 1011.5 |
| 20260509053350 | 18 | 171 | 3.2 | 3.2 | 0.00 | 0.00 | 0.00 | 88 | 1012.0 |
| 20260509052849 | 18 | 196 | 0.0 | 0.0 | 0.00 | 0.00 | 0.00 | 88 | 1012.3 |
| 20260509052346 | 18 | 330 | 1.6 | 3.2 | 0.00 | 0.00 | 0.00 | 87 | 1011.8 |
| 20260509051843 | 18 | 233 | 1.6 | 1.6 | 0.00 | 0.00 | 0.00 | 87 | 1012.5 |
| 20260509051341 | 18 | 144 | 1.6 | 1.6 | 0.00 | 0.00 | 0.00 | 87 | 1012.3 |
| 20260509050838 | 19 | 323 | 6.4 | 9.7 | 0.00 | 0.00 | 0.00 | 87 | 1012.5 |
| 20260509050335 | 19 | 160 | 0.0 | 1.6 | 0.00 | 0.00 | 0.00 | 86 | 1012.2 |
| 20260509045831 | 20 | 211 | 4.8 | 6.4 | 0.00 | 0.86 | 0.86 | 85 | 1012.1 |
| 20260509045328 | 20 | 186 | 17.7 | 25.7 | 0.00 | 0.86 | 0.86 | 85 | 1011.5 |
| 20260509044826 | 20 | 217 | 6.4 | 9.7 | 0.00 | 0.86 | 0.86 | 85 | 1011.7 |
| 20260509044323 | 20 | 224 | 17.7 | 25.7 | 0.00 | 0.86 | 0.86 | 86 | 1011.1 |
| 20260509043819 | 20 | 221 | 1.6 | 1.6 | 0.00 | 0.86 | 0.86 | 89 | 1011.9 |
| 20260509043316 | 20 | 219 | 1.6 | 1.6 | 0.00 | 0.86 | 0.86 | 88 | 1011.1 |
| 20260509042811 | 20 | 156 | 16.1 | 17.7 | 0.00 | 0.86 | 0.86 | 89 | 1011.3 |
| 20260509042308 | 20 | 153 | 3.2 | 3.2 | 0.00 | 0.86 | 0.86 | 88 | 1011.5 |
| 20260509041804 | 20 | 167 | 20.9 | 29.0 | 0.00 | 0.86 | 0.86 | 88 | 1011.1 |
| 20260509041302 | 20 | 205 | 14.5 | 17.7 | 0.00 | 0.86 | 0.86 | 88 | 1010.2 |
| 20260509040800 | 20 | 157 | 17.7 | 24.1 | 0.00 | 0.86 | 0.86 | 88 | 1010.5 |
| 20260509040257 | 20 | 178 | 17.7 | 24.1 | 0.00 | 0.86 | 0.86 | 88 | 1010.6 |
| 20260509035754 | 19 | 179 | 20.9 | 25.7 | 0.13 | 0.86 | 0.86 | 89 | 1010.6 |
| 20260509035251 | 20 | 176 | 12.9 | 16.1 | 1.07 | 0.86 | 0.86 | 89 | 1011.5 |
| 20260509034747 | 20 | 152 | 11.3 | 12.9 | 2.95 | 0.84 | 0.84 | 88 | 1011.6 |
| 20260509034245 | 20 | 177 | 9.7 | 11.3 | 1.98 | 0.69 | 0.69 | 85 | 1013.1 |
| 20260509033742 | 21 | 126 | 0.0 | 1.6 | 0.00 | 0.36 | 0.36 | 80 | 1014.6 |
| 20260509033239 | 21 | 346 | 3.2 | 4.8 | 0.00 | 0.36 | 0.36 | 81 | 1014.4 |
| 20260509032736 | 20 | 340 | 8.0 | 9.7 | 0.00 | 0.36 | 0.36 | 82 | 1014.2 |
| 20260509032233 | 20 | 331 | 3.2 | 4.8 | 0.00 | 0.36 | 0.36 | 82 | 1013.2 |
| 20260509031731 | 20 | 183 | 1.6 | 1.6 | 0.00 | 0.36 | 0.36 | 82 | 1012.2 |
| 20260509031228 | 20 | 175 | 4.8 | 6.4 | 0.00 | 0.36 | 0.36 | 82 | 1011.8 |
| 20260509030726 | 20 | 142 | 1.6 | 3.2 | 0.00 | 0.36 | 0.36 | 82 | 1011.6 |
| 20260509030223 | 20 | 171 | 1.6 | 3.2 | 0.00 | 0.36 | 0.36 | 82 | 1011.4 |
| 20260509025720 | 20 | 158 | 3.2 | 3.2 | 0.00 | 0.36 | 0.36 | 82 | 1011.0 |
| 20260509025215 | 20 | 152 | 3.2 | 3.2 | 0.00 | 0.36 | 0.36 | 81 | 1011.1 |
| 20260509024711 | 21 | 151 | 6.4 | 9.7 | 0.00 | 0.36 | 0.36 | 80 | 1011.5 |
| 20260509024207 | 21 | 147 | 1.6 | 1.6 | 0.00 | 0.36 | 0.36 | 80 | 1011.3 |
| 20260509023705 | 21 | 176 | 6.4 | 6.4 | 0.00 | 0.36 | 0.36 | 80 | 1011.2 |
| 20260509023202 | 21 | 161 | 6.4 | 9.7 | 0.00 | 0.36 | 0.36 | 79 | 1010.7 |
| 20260509022657 | 21 | 162 | 3.2 | 3.2 | 0.00 | 0.36 | 0.36 | 79 | 1010.6 |
| 20260509022156 | 21 | 185 | 6.4 | 6.4 | 0.00 | 0.36 | 0.36 | 79 | 1010.5 |
| 20260509021652 | 21 | 133 | 9.7 | 14.5 | 0.00 | 0.36 | 0.36 | 79 | 1010.1 |
| 20260509021150 | 21 | 157 | 8.0 | 9.7 | 0.00 | 0.36 | 0.36 | 79 | 1010.1 |
| 20260509020648 | 21 | 190 | 14.5 | 17.7 | 0.00 | 0.36 | 0.36 | 78 | 1009.8 |
| 20260509020144 | 21 | 161 | 9.7 | 12.9 | 0.00 | 0.36 | 0.36 | 78 | 1010.4 |
| 20260509015643 | 21 | 173 | 6.4 | 9.7 | 0.00 | 0.36 | 0.36 | 78 | 1010.6 |
| 20260509015140 | 21 | 145 | 6.4 | 9.7 | 0.00 | 0.36 | 0.36 | 78 | 1010.7 |
| 20260509014637 | 21 | 163 | 3.2 | 4.8 | 0.00 | 0.36 | 0.36 | 77 | 1010.7 |
| 20260509014133 | 21 | 189 | 1.6 | 3.2 | 0.00 | 0.36 | 0.36 | 77 | 1011.1 |
| 20260509013630 | 21 | 156 | 1.6 | 3.2 | 0.00 | 0.36 | 0.36 | 77 | 1010.9 |
| 20260509013126 | 21 | 26 | 3.2 | 3.2 | 0.00 | 0.36 | 0.36 | 77 | 1010.7 |
| 20260509012623 | 21 | 42 | 1.6 | 3.2 | 0.00 | 0.36 | 0.36 | 77 | 1010.4 |
| 20260509012119 | 22 | 208 | 0.0 | 1.6 | 0.00 | 0.36 | 0.36 | 76 | 1010.1 |
| 20260509011618 | 22 | 74 | 0.0 | 1.6 | 0.00 | 0.36 | 0.36 | 76 | 1009.8 |
| 20260509011114 | 22 | 159 | 1.6 | 1.6 | 0.00 | 0.36 | 0.36 | 75 | 1009.3 |
| 20260509010612 | 22 | 131 | 8.0 | 9.7 | 0.00 | 0.36 | 0.36 | 74 | 1009.0 |
| 20260509010108 | 22 | 117 | 6.4 | 9.7 | 0.00 | 0.36 | 0.36 | 74 | 1008.8 |
| 20260509005606 | 22 | 190 | 8.0 | 9.7 | 0.00 | 0.36 | 0.36 | 74 | 1008.8 |
| 20260509005102 | 22 | 166 | 9.7 | 14.5 | 0.00 | 0.36 | 0.36 | 73 | 1008.9 |
| 20260509004558 | 23 | 166 | 8.0 | 14.5 | 0.00 | 0.36 | 0.36 | 73 | 1009.1 |
| 20260509004055 | 23 | 163 | 11.3 | 14.5 | 0.00 | 0.36 | 0.36 | 72 | 1009.4 |
| 20260509003554 | 23 | 169 | 6.4 | 9.7 | 0.00 | 0.36 | 0.36 | 73 | 1009.7 |
| 20260509003050 | 23 | 146 | 9.7 | 11.3 | 0.00 | 0.36 | 0.36 | 72 | 1009.6 |
| 20260509002548 | 23 | 160 | 6.4 | 6.4 | 0.00 | 0.36 | 0.36 | 72 | 1010.0 |
| 20260509002045 | 24 | 178 | 9.7 | 12.9 | 0.00 | 0.36 | 0.36 | 71 | 1009.8 |
| 20260509001543 | 24 | 155 | 9.7 | 12.9 | 0.00 | 0.36 | 0.36 | 71 | 1009.7 |
| 20260509001038 | 24 | 168 | 9.7 | 11.3 | 0.00 | 0.36 | 0.36 | 71 | 1009.7 |
| 20260509000537 | 24 | 151 | 9.7 | 12.9 | 0.00 | 0.36 | 0.36 | 71 | 1009.4 |
| 20260509000032 | 24 | 162 | 6.4 | 6.4 | 0.00 | 0.36 | 0.36 | 71 | 1009.6 |
| 20260508235531 | 25 | 135 | 11.3 | 14.5 | 0.00 | 0.36 | 0.36 | 70 | 1009.7 |
| 20260508235026 | 25 | 198 | 6.4 | 11.3 | 0.00 | 0.36 | 0.36 | 70 | 1009.8 |
| 20260508234524 | 25 | 216 | 3.2 | 9.7 | 0.00 | 0.36 | 0.36 | 70 | 1009.5 |
| 20260508234021 | 25 | 170 | 6.4 | 9.7 | 0.00 | 0.36 | 0.36 | 70 | 1009.3 |
| 20260508233520 | 25 | 224 | 6.4 | 6.4 | 0.00 | 0.36 | 0.36 | 70 | 1009.3 |
| 20260508233017 | 25 | 166 | 8.0 | 12.9 | 0.00 | 0.36 | 0.36 | 69 | 1009.3 |
| 20260508232514 | 25 | 163 | 6.4 | 9.7 | 0.00 | 0.36 | 0.36 | 69 | 1009.4 |
| 20260508232011 | 25 | 176 | 4.8 | 9.7 | 0.00 | 0.36 | 0.36 | 69 | 1009.5 |
| 20260508231508 | 25 | 186 | 6.4 | 6.4 | 0.00 | 0.36 | 0.36 | 69 | 1009.3 |
| 20260508231005 | 25 | 185 | 9.7 | 11.3 | 0.00 | 0.36 | 0.36 | 69 | 1009.3 |
| 20260508230502 | 25 | 148 | 6.4 | 11.3 | 0.00 | 0.36 | 0.36 | 68 | 1009.5 |
| 20260508225958 | 25 | 172 | 6.4 | 6.4 | 0.00 | 0.36 | 0.36 | 68 | 1009.3 |
| 20260508225456 | 25 | 176 | 8.0 | 12.9 | 0.00 | 0.36 | 0.36 | 68 | 1009.6 |
| 20260508224953 | 25 | 161 | 14.5 | 17.7 | 0.00 | 0.36 | 0.36 | 67 | 1009.4 |
| 20260508224450 | 25 | 190 | 9.7 | 14.5 | 0.00 | 0.36 | 0.36 | 69 | 1009.5 |
| 20260508223948 | 25 | 179 | 9.7 | 12.9 | 0.00 | 0.36 | 0.36 | 68 | 1009.6 |
| 20260508223445 | 25 | 145 | 11.3 | 14.5 | 0.00 | 0.36 | 0.36 | 68 | 1009.6 |
| 20260508222942 | 25 | 152 | 8.0 | 11.3 | 0.00 | 0.36 | 0.36 | 67 | 1009.9 |
| 20260508222440 | 25 | 191 | 9.7 | 11.3 | 0.00 | 0.36 | 0.36 | 67 | 1009.7 |
| 20260508221936 | 25 | 185 | 9.7 | 16.1 | 0.00 | 0.36 | 0.36 | 66 | 1009.8 |
| 20260508221432 | 25 | 177 | 9.7 | 12.9 | 0.00 | 0.36 | 0.36 | 66 | 1010.1 |
| 20260508220928 | 26 | 151 | 12.9 | 16.1 | 0.00 | 0.36 | 0.36 | 67 | 1009.7 |
| 20260508220425 | 26 | 180 | 12.9 | 14.5 | 0.00 | 0.36 | 0.36 | 66 | 1009.9 |
| 20260508215921 | 26 | 166 | 9.7 | 11.3 | 0.00 | 0.36 | 0.36 | 66 | 1009.8 |
| 20260508215419 | 26 | 164 | 9.7 | 11.3 | 0.00 | 0.36 | 0.36 | 65 | 1009.9 |
| 20260508214915 | 26 | 159 | 12.9 | 12.9 | 0.00 | 0.36 | 0.36 | 65 | 1009.9 |
| 20260508214413 | 26 | 236 | 8.0 | 11.3 | 0.00 | 0.36 | 0.36 | 64 | 1010.0 |
| 20260508213908 | 26 | 172 | 6.4 | 9.7 | 0.00 | 0.36 | 0.36 | 62 | 1010.0 |
| 20260508213406 | 27 | 155 | 11.3 | 12.9 | 0.00 | 0.36 | 0.36 | 61 | 1009.9 |
| 20260508212901 | 26 | 195 | 1.6 | 1.6 | 0.00 | 0.36 | 0.36 | 61 | 1010.0 |
| 20260508212358 | 26 | 191 | 8.0 | 9.7 | 0.00 | 0.36 | 0.36 | 61 | 1010.1 |
| 20260508211854 | 26 | 173 | 11.3 | 12.9 | 0.00 | 0.36 | 0.36 | 62 | 1010.0 |
| 20260508211350 | 26 | 179 | 9.7 | 14.5 | 0.00 | 0.36 | 0.36 | 62 | 1010.2 |
| 20260508210848 | 26 | 161 | 12.9 | 16.1 | 0.00 | 0.36 | 0.36 | 61 | 1010.4 |
| 20260508210344 | 26 | 162 | 12.9 | 17.7 | 0.00 | 0.36 | 0.36 | 62 | 1010.4 |
| 20260508205841 | 26 | 177 | 9.7 | 12.9 | 0.00 | 0.36 | 0.36 | 62 | 1010.4 |
| 20260508205337 | 26 | 145 | 9.7 | 12.9 | 0.00 | 0.36 | 0.36 | 63 | 1010.6 |
| 20260508204833 | 27 | 167 | 9.7 | 11.3 | 0.00 | 0.36 | 0.36 | 61 | 1010.7 |
| 20260508204331 | 27 | 213 | 6.4 | 6.4 | 0.00 | 0.36 | 0.36 | 61 | 1010.9 |
| 20260508203826 | 27 | 112 | 9.7 | 14.5 | 0.00 | 0.36 | 0.36 | 62 | 1010.9 |
| 20260508203323 | 26 | 166 | 9.7 | 12.9 | 0.00 | 0.36 | 0.36 | 63 | 1010.9 |
| 20260508202818 | 26 | 182 | 12.9 | 17.7 | 0.00 | 0.36 | 0.36 | 63 | 1010.9 |
| 20260508202316 | 26 | 183 | 12.9 | 14.5 | 0.00 | 0.36 | 0.36 | 63 | 1010.9 |
| 20260508201814 | 26 | 189 | 6.4 | 6.4 | 0.00 | 0.36 | 0.36 | 64 | 1011.1 |